Woodside, New York
Current Conditions -  °F | °C
As of 3:51 PM on Monday 24 Nov 2014 (Local Time) from KLGA Reporting Station
Few Clouds Few Clouds  
Wind Chill: 61°   Ceiling: Unl
Heat Index: 61°   Visibility: 10mi
Dew Point: 55°   Wind: 9mph
Humidity: 81%   Direction: 170°S
Pressure: 29.59"   Gusts: NA
Location:  40.75°N, 73.91°W
Report Text: KLGA 242051Z 17008KT 10SM FEW035 16/13 A2959 RMK AO2 SLP018 T01610128 55007
Loading
Personal Weather Stations






























Interactive Weather Map New forecast layout! Learn more

10-Day Weather Forecast

Advertisements
Track Severe Weather on mobile